createdAt,value
2022-10-20T00:02:46.202Z,13.46
2022-10-20T00:07:47.730Z,13.45
2022-10-20T00:12:49.174Z,13.40
2022-10-20T00:17:50.580Z,13.38
2022-10-20T00:22:52.042Z,13.39
2022-10-20T00:27:53.513Z,13.36
2022-10-20T00:32:54.928Z,13.29
2022-10-20T00:37:57.415Z,13.24
2022-10-20T00:42:58.851Z,13.16
2022-10-20T00:48:08.623Z,13.11
2022-10-20T00:53:11.047Z,13.14
2022-10-20T00:58:12.767Z,13.11
2022-10-20T01:03:23.816Z,12.93
2022-10-20T01:08:25.425Z,12.66
2022-10-20T01:13:43.532Z,12.49
2022-10-20T01:19:17.742Z,12.41
2022-10-20T01:24:56.925Z,12.31
2022-10-20T01:30:07.252Z,12.25
2022-10-20T01:35:18.808Z,12.23
2022-10-20T01:40:32.012Z,12.21
2022-10-20T01:45:36.919Z,12.17
2022-10-20T01:50:40.416Z,12.21
2022-10-20T01:55:42.288Z,12.53
2022-10-20T02:00:45.150Z,12.75
2022-10-20T02:06:30.445Z,12.66
2022-10-20T02:11:46.044Z,12.46
2022-10-20T02:16:51.609Z,12.40
2022-10-20T02:21:55.270Z,12.15
2022-10-20T02:27:01.679Z,11.93
2022-10-20T02:32:03.175Z,11.84
2022-10-20T02:37:04.676Z,11.82
2022-10-20T02:42:06.272Z,11.85
2022-10-20T02:47:07.679Z,11.85
2022-10-20T02:52:09.089Z,11.82
2022-10-20T02:57:10.567Z,11.77
2022-10-20T03:02:12.007Z,11.68
2022-10-20T03:07:14.383Z,11.70
2022-10-20T03:12:16.036Z,11.70
2022-10-20T03:17:17.452Z,11.71
2022-10-20T03:22:18.888Z,11.72
2022-10-20T03:27:20.415Z,11.64
2022-10-20T03:32:21.830Z,11.57
2022-10-20T03:37:23.373Z,11.56
2022-10-20T03:42:24.807Z,11.55
2022-10-20T03:47:26.267Z,11.56
2022-10-20T03:52:27.941Z,11.58
2022-10-20T03:57:29.400Z,11.57
2022-10-20T04:02:36.247Z,11.53
2022-10-20T04:07:37.829Z,11.50
2022-10-20T04:12:39.686Z,11.55
2022-10-20T04:17:41.224Z,11.60
2022-10-20T04:22:42.745Z,11.66
2022-10-20T04:27:44.371Z,11.70
2022-10-20T04:32:45.863Z,11.74
2022-10-20T04:37:47.275Z,11.76
2022-10-20T04:42:48.723Z,11.76
2022-10-20T04:47:50.151Z,11.67
2022-10-20T04:52:51.608Z,11.68
2022-10-20T04:57:53.078Z,11.75
2022-10-20T05:02:55.331Z,11.84
2022-10-20T05:07:56.754Z,11.86
2022-10-20T05:12:58.280Z,11.86
2022-10-20T05:17:59.716Z,11.80
2022-10-20T05:23:01.145Z,11.68
2022-10-20T05:28:02.724Z,11.68
2022-10-20T05:33:05.009Z,11.68
2022-10-20T05:38:06.474Z,11.66
2022-10-20T05:43:07.876Z,11.62
2022-10-20T05:48:09.315Z,11.59
2022-10-20T05:53:10.765Z,11.51
2022-10-20T05:58:12.292Z,11.44
2022-10-20T06:03:16.155Z,11.32
2022-10-20T06:08:20.642Z,11.31
2022-10-20T06:13:22.143Z,11.26
2022-10-20T06:18:23.583Z,11.24
2022-10-20T06:23:25.036Z,11.35
2022-10-20T06:28:26.565Z,11.54
2022-10-20T06:33:30.341Z,11.67
2022-10-20T06:38:31.865Z,11.68
2022-10-20T06:43:33.692Z,11.78
2022-10-20T06:48:35.854Z,12.03
2022-10-20T06:53:38.915Z,12.37
2022-10-20T06:58:44.476Z,12.68
2022-10-20T07:03:48.014Z,12.98
2022-10-20T07:08:51.090Z,13.23
2022-10-20T07:13:53.373Z,13.46
2022-10-20T07:18:55.644Z,13.53
2022-10-20T07:23:57.375Z,13.81
2022-10-20T07:29:01.099Z,14.15
2022-10-20T07:34:23.720Z,14.41
2022-10-20T07:39:28.163Z,14.85
2022-10-20T07:44:29.680Z,15.52
2022-10-20T07:49:46.639Z,16.16
2022-10-20T07:54:48.161Z,16.64
2022-10-20T07:59:49.677Z,16.71
2022-10-20T08:04:51.335Z,16.70
2022-10-20T08:09:53.465Z,17.17
2022-10-20T08:15:20.583Z,17.41
2022-10-20T08:20:24.882Z,18.01
2022-10-20T08:25:29.904Z,18.55
2022-10-20T08:30:31.538Z,19.32
2022-10-20T08:35:33.659Z,18.81
2022-10-20T08:40:38.995Z,17.95
2022-10-20T08:45:40.602Z,17.30
2022-10-20T08:50:48.074Z,16.70
2022-10-20T08:55:50.338Z,16.53
2022-10-20T09:00:59.960Z,16.61
2022-10-20T09:06:15.310Z,16.20
2022-10-20T09:11:21.514Z,15.81
2022-10-20T09:16:42.068Z,15.13
2022-10-20T09:21:54.855Z,14.92
2022-10-20T09:26:59.516Z,14.75
2022-10-20T09:32:27.240Z,14.81
2022-10-20T09:37:25.243Z,15.28
2022-10-20T09:42:59.200Z,15.81
2022-10-20T09:48:17.094Z,15.70
2022-10-20T09:53:33.718Z,15.92
2022-10-20T09:58:39.922Z,16.45
2022-10-20T10:03:51.894Z,16.81
2022-10-20T10:08:54.411Z,16.67
2022-10-20T10:13:56.091Z,16.65
2022-10-20T10:19:04.154Z,16.60
2022-10-20T10:24:06.208Z,16.23
2022-10-20T10:29:23.901Z,15.60
2022-10-20T10:35:03.531Z,15.54
2022-10-20T10:40:18.032Z,15.75
2022-10-20T10:45:38.481Z,16.05
2022-10-20T10:51:07.199Z,16.31
2022-10-20T10:56:11.800Z,16.02
2022-10-20T11:01:19.857Z,15.85
2022-10-20T11:06:45.097Z,16.02
2022-10-20T11:12:08.696Z,16.32
2022-10-20T11:17:11.119Z,16.63
2022-10-20T11:22:33.197Z,16.75
2022-10-20T11:27:38.006Z,16.89
2022-10-20T11:32:46.060Z,16.96
2022-10-20T11:38:15.930Z,16.96
2022-10-20T11:43:46.837Z,16.73
2022-10-20T11:48:52.513Z,16.56
2022-10-20T11:54:00.258Z,16.40
2022-10-20T11:59:28.353Z,16.57
2022-10-20T12:04:45.371Z,16.66
2022-10-20T12:10:08.761Z,16.28
2022-10-20T12:15:25.539Z,16.12
2022-10-20T12:20:27.319Z,16.36
2022-10-20T12:25:41.238Z,16.55
2022-10-20T12:30:44.465Z,16.73
2022-10-20T12:35:59.852Z,16.99
2022-10-20T12:41:02.593Z,17.23
2022-10-20T12:46:11.757Z,17.20
2022-10-20T12:51:24.840Z,17.03
2022-10-20T12:56:32.014Z,16.86
2022-10-20T13:02:08.853Z,16.75
2022-10-20T13:07:11.411Z,16.84
2022-10-20T13:12:28.964Z,17.14
2022-10-20T13:17:51.189Z,17.34
2022-10-20T13:22:57.056Z,17.53
2022-10-20T13:28:18.294Z,17.63
2022-10-20T13:33:51.501Z,17.62
2022-10-20T13:39:02.630Z,17.61
2022-10-20T13:44:31.205Z,17.60
2022-10-20T13:49:52.980Z,17.62
2022-10-20T13:54:56.575Z,17.75
2022-10-20T14:00:01.138Z,17.88
2022-10-20T14:05:10.579Z,17.98
2022-10-20T14:10:39.509Z,17.96
2022-10-20T14:15:47.164Z,17.89
2022-10-20T14:21:02.818Z,17.88
2022-10-20T14:26:15.426Z,17.63
2022-10-20T14:31:21.277Z,17.37
2022-10-20T14:36:24.302Z,17.29
2022-10-20T14:41:30.362Z,17.21
2022-10-20T14:46:37.934Z,17.17
2022-10-20T14:51:45.136Z,17.07
2022-10-20T14:56:52.262Z,16.95
2022-10-20T15:02:01.580Z,16.93
2022-10-20T15:07:15.984Z,16.99
2022-10-20T15:12:38.688Z,17.06
2022-10-20T15:17:44.275Z,17.14
2022-10-20T15:22:46.506Z,17.17
2022-10-20T15:27:48.742Z,17.19
2022-10-20T15:32:50.788Z,17.18
2022-10-20T15:37:53.733Z,17.05
2022-10-20T15:42:55.263Z,16.76
2022-10-20T15:47:56.816Z,16.69
2022-10-20T15:52:58.474Z,16.65
2022-10-20T15:58:02.948Z,16.52
2022-10-20T16:03:05.370Z,16.46
2022-10-20T16:08:06.864Z,16.44
2022-10-20T16:13:08.860Z,16.31
2022-10-20T16:18:10.930Z,16.30
2022-10-20T16:23:12.460Z,16.27
2022-10-20T16:28:13.894Z,16.28
2022-10-20T16:33:15.415Z,16.27
2022-10-20T16:38:16.870Z,16.23
2022-10-20T16:43:18.308Z,16.19
2022-10-20T16:48:20.360Z,16.17
2022-10-20T16:53:23.662Z,16.10
2022-10-20T16:58:25.128Z,15.82
2022-10-20T17:03:26.621Z,15.67
2022-10-20T17:08:30.466Z,15.65
2022-10-20T17:13:33.033Z,15.57
2022-10-20T17:18:34.891Z,15.52
2022-10-20T17:23:41.802Z,15.56
2022-10-20T17:28:44.816Z,15.64
2022-10-20T17:33:46.909Z,15.63
2022-10-20T17:38:48.340Z,15.68
2022-10-20T17:43:50.222Z,15.70
2022-10-20T17:48:51.739Z,15.69
2022-10-20T17:53:55.908Z,15.73
2022-10-20T17:58:59.343Z,15.67
2022-10-20T18:04:04.057Z,15.56
2022-10-20T18:09:10.977Z,15.55
2022-10-20T18:14:12.628Z,15.67
2022-10-20T18:19:18.246Z,15.77
2022-10-20T18:24:20.299Z,15.84
2022-10-20T18:29:22.076Z,15.87
2022-10-20T18:34:23.711Z,15.88
2022-10-20T18:39:25.264Z,15.92
2022-10-20T18:49:34.152Z,16.03
2022-10-20T18:54:35.667Z,16.19
2022-10-20T18:59:37.163Z,16.40
2022-10-20T19:04:38.679Z,16.45
2022-10-20T19:09:40.643Z,16.50
2022-10-20T19:14:42.082Z,16.41
2022-10-20T19:19:44.639Z,16.42
2022-10-20T19:24:46.266Z,16.50
2022-10-20T19:29:47.750Z,16.57
2022-10-20T19:34:49.195Z,16.56
2022-10-20T19:39:50.667Z,16.53
2022-10-20T19:44:52.190Z,16.52
2022-10-20T19:49:54.035Z,16.47
2022-10-20T19:54:55.480Z,16.34
2022-10-20T19:59:56.928Z,16.32
2022-10-20T20:04:58.363Z,16.33
2022-10-20T20:10:00.026Z,16.38
2022-10-20T20:15:01.731Z,16.38
2022-10-20T20:20:03.784Z,16.40
2022-10-20T20:25:05.640Z,16.45
2022-10-20T20:30:07.596Z,16.51
2022-10-20T20:35:09.457Z,16.51
2022-10-20T20:40:11.206Z,16.54
2022-10-20T20:45:13.687Z,16.55
2022-10-20T20:50:15.262Z,16.50
2022-10-20T20:55:16.775Z,16.40
2022-10-20T21:00:18.546Z,16.26
2022-10-20T21:05:20.022Z,16.18
2022-10-20T21:10:21.459Z,16.09
2022-10-20T21:15:22.868Z,16.09
2022-10-20T21:20:24.334Z,16.14
2022-10-20T21:25:25.830Z,16.21
2022-10-20T21:30:27.369Z,16.27
2022-10-20T21:35:29.980Z,16.26
2022-10-20T21:40:31.701Z,16.28
2022-10-20T21:45:33.194Z,16.26
2022-10-20T21:50:36.563Z,16.22
2022-10-20T21:55:37.983Z,16.18
2022-10-20T22:00:39.519Z,16.09
2022-10-20T22:05:41.077Z,16.07
2022-10-20T22:10:42.552Z,16.17
2022-10-20T22:15:44.178Z,16.21
2022-10-20T22:20:45.640Z,16.20
2022-10-20T22:25:47.110Z,16.27
2022-10-20T22:30:48.605Z,16.23
2022-10-20T22:35:50.134Z,16.20
2022-10-20T22:40:51.558Z,16.16
2022-10-20T22:45:53.098Z,16.16
2022-10-20T22:50:54.649Z,16.30
2022-10-20T22:55:57.586Z,16.31
2022-10-20T23:00:59.129Z,16.37
2022-10-20T23:06:00.851Z,16.41
2022-10-20T23:11:02.261Z,16.36
2022-10-20T23:16:04.167Z,16.18
2022-10-20T23:27:28.107Z,16.02
2022-10-20T23:32:29.723Z,15.95
2022-10-20T23:37:31.266Z,15.94
2022-10-20T23:42:32.696Z,15.92
2022-10-20T23:47:34.114Z,15.94
2022-10-20T23:52:35.562Z,16.02
2022-10-20T23:57:37.200Z,16.07
